sensor_id;sensor_type;location;lat;lon;timestamp;temperature;humidity
592;DHT22;283;53.608;10.046;2022-07-23T00:01:36;18.10;99.90
592;DHT22;283;53.608;10.046;2022-07-23T00:04:04;18.00;99.90
592;DHT22;283;53.608;10.046;2022-07-23T00:06:34;18.00;99.90
592;DHT22;283;53.608;10.046;2022-07-23T00:09:05;18.00;99.90
592;DHT22;283;53.608;10.046;2022-07-23T00:11:33;18.00;99.90
592;DHT22;283;53.608;10.046;2022-07-23T00:14:01;18.00;99.90
592;DHT22;283;53.608;10.046;2022-07-23T00:16:29;18.00;99.90
592;DHT22;283;53.608;10.046;2022-07-23T00:18:57;18.00;99.90
592;DHT22;283;53.608;10.046;2022-07-23T00:21:28;18.00;99.90
592;DHT22;283;53.608;10.046;2022-07-23T00:23:56;18.00;99.90
592;DHT22;283;53.608;10.046;2022-07-23T00:26:26;18.00;99.90
592;DHT22;283;53.608;10.046;2022-07-23T00:28:54;17.90;99.90
592;DHT22;283;53.608;10.046;2022-07-23T00:31:21;17.90;99.90
592;DHT22;283;53.608;10.046;2022-07-23T00:33:49;17.90;99.90
592;DHT22;283;53.608;10.046;2022-07-23T00:36:17;17.90;99.90
592;DHT22;283;53.608;10.046;2022-07-23T00:38:45;17.80;99.90
592;DHT22;283;53.608;10.046;2022-07-23T00:41:13;17.80;99.90
592;DHT22;283;53.608;10.046;2022-07-23T00:43:42;17.70;99.90
592;DHT22;283;53.608;10.046;2022-07-23T00:46:10;17.60;99.90
592;DHT22;283;53.608;10.046;2022-07-23T00:48:38;17.50;99.90
592;DHT22;283;53.608;10.046;2022-07-23T00:51:06;17.40;99.90
592;DHT22;283;53.608;10.046;2022-07-23T00:53:34;17.40;99.90
592;DHT22;283;53.608;10.046;2022-07-23T00:56:02;17.40;99.90
592;DHT22;283;53.608;10.046;2022-07-23T00:58:31;17.30;99.90
592;DHT22;283;53.608;10.046;2022-07-23T01:01:02;17.30;99.90
592;DHT22;283;53.608;10.046;2022-07-23T01:03:30;17.30;99.90
592;DHT22;283;53.608;10.046;2022-07-23T01:05:58;17.30;99.90
592;DHT22;283;53.608;10.046;2022-07-23T01:08:26;17.20;99.90
592;DHT22;283;53.608;10.046;2022-07-23T01:10:54;17.20;99.90
592;DHT22;283;53.608;10.046;2022-07-23T01:13:22;17.20;99.90
592;DHT22;283;53.608;10.046;2022-07-23T01:15:50;17.20;99.90
592;DHT22;283;53.608;10.046;2022-07-23T01:18:19;17.20;99.90
592;DHT22;283;53.608;10.046;2022-07-23T01:20:47;17.20;99.90
592;DHT22;283;53.608;10.046;2022-07-23T01:23:17;17.20;99.90
592;DHT22;283;53.608;10.046;2022-07-23T01:25:48;17.20;99.90
592;DHT22;283;53.608;10.046;2022-07-23T01:28:16;17.10;99.90
592;DHT22;283;53.608;10.046;2022-07-23T01:30:44;17.00;99.90
592;DHT22;283;53.608;10.046;2022-07-23T01:33:12;17.00;99.90
592;DHT22;283;53.608;10.046;2022-07-23T01:35:40;17.00;99.90
592;DHT22;283;53.608;10.046;2022-07-23T01:38:08;16.90;99.90
592;DHT22;283;53.608;10.046;2022-07-23T01:40:37;17.00;99.90
592;DHT22;283;53.608;10.046;2022-07-23T01:43:05;17.00;99.90
592;DHT22;283;53.608;10.046;2022-07-23T01:45:34;17.00;99.90
592;DHT22;283;53.608;10.046;2022-07-23T01:48:02;17.00;99.90
592;DHT22;283;53.608;10.046;2022-07-23T01:50:36;17.10;99.90
592;DHT22;283;53.608;10.046;2022-07-23T01:53:04;17.20;99.90
592;DHT22;283;53.608;10.046;2022-07-23T01:55:31;17.30;99.90
592;DHT22;283;53.608;10.046;2022-07-23T01:58:01;17.30;99.90
592;DHT22;283;53.608;10.046;2022-07-23T02:00:28;17.40;99.90
592;DHT22;283;53.608;10.046;2022-07-23T02:02:56;17.40;99.90
592;DHT22;283;53.608;10.046;2022-07-23T02:05:25;17.50;99.90
592;DHT22;283;53.608;10.046;2022-07-23T02:07:55;17.50;99.90
592;DHT22;283;53.608;10.046;2022-07-23T02:10:23;17.40;99.90
592;DHT22;283;53.608;10.046;2022-07-23T02:12:51;17.40;99.90
592;DHT22;283;53.608;10.046;2022-07-23T02:15:20;17.40;99.90
592;DHT22;283;53.608;10.046;2022-07-23T02:23:33;17.20;99.90
592;DHT22;283;53.608;10.046;2022-07-23T02:26:01;17.20;99.90
592;DHT22;283;53.608;10.046;2022-07-23T02:28:29;17.10;99.90
592;DHT22;283;53.608;10.046;2022-07-23T02:30:59;17.10;99.90
592;DHT22;283;53.608;10.046;2022-07-23T02:33:27;17.10;99.90
592;DHT22;283;53.608;10.046;2022-07-23T02:35:55;17.00;99.90
592;DHT22;283;53.608;10.046;2022-07-23T02:38:23;17.00;99.90
592;DHT22;283;53.608;10.046;2022-07-23T02:40:51;16.90;99.90
592;DHT22;283;53.608;10.046;2022-07-23T02:43:19;16.90;99.90
592;DHT22;283;53.608;10.046;2022-07-23T02:45:47;16.80;99.90
592;DHT22;283;53.608;10.046;2022-07-23T02:48:16;16.70;99.90
592;DHT22;283;53.608;10.046;2022-07-23T02:50:45;16.60;99.90
592;DHT22;283;53.608;10.046;2022-07-23T02:53:13;16.50;99.90
592;DHT22;283;53.608;10.046;2022-07-23T02:55:43;16.50;99.90
592;DHT22;283;53.608;10.046;2022-07-23T02:58:11;16.40;99.90
592;DHT22;283;53.608;10.046;2022-07-23T03:00:42;16.20;99.90
592;DHT22;283;53.608;10.046;2022-07-23T03:03:11;16.20;99.90
592;DHT22;283;53.608;10.046;2022-07-23T03:05:41;16.10;99.90
592;DHT22;283;53.608;10.046;2022-07-23T03:08:09;16.20;99.90
592;DHT22;283;53.608;10.046;2022-07-23T03:10:37;16.30;99.90
592;DHT22;283;53.608;10.046;2022-07-23T03:13:05;16.40;99.90
592;DHT22;283;53.608;10.046;2022-07-23T03:15:32;16.40;99.90
592;DHT22;283;53.608;10.046;2022-07-23T03:18:00;16.60;99.90
592;DHT22;283;53.608;10.046;2022-07-23T03:20:28;16.60;99.90
592;DHT22;283;53.608;10.046;2022-07-23T03:23:01;16.70;99.90
592;DHT22;283;53.608;10.046;2022-07-23T03:25:31;16.80;99.90
592;DHT22;283;53.608;10.046;2022-07-23T03:27:59;16.80;99.90
592;DHT22;283;53.608;10.046;2022-07-23T03:30:27;16.90;99.90
592;DHT22;283;53.608;10.046;2022-07-23T03:32:55;17.00;99.90
592;DHT22;283;53.608;10.046;2022-07-23T03:35:24;17.10;99.90
592;DHT22;283;53.608;10.046;2022-07-23T03:37:52;17.20;99.90
592;DHT22;283;53.608;10.046;2022-07-23T03:43:38;17.10;99.90
592;DHT22;283;53.608;10.046;2022-07-23T03:46:06;17.00;99.90
592;DHT22;283;53.608;10.046;2022-07-23T03:48:34;17.00;99.90
592;DHT22;283;53.608;10.046;2022-07-23T03:51:02;17.00;99.90
592;DHT22;283;53.608;10.046;2022-07-23T03:53:30;17.00;99.90
592;DHT22;283;53.608;10.046;2022-07-23T03:55:58;16.90;99.90
592;DHT22;283;53.608;10.046;2022-07-23T03:58:26;16.90;99.90
592;DHT22;283;53.608;10.046;2022-07-23T04:00:56;16.80;99.90
592;DHT22;283;53.608;10.046;2022-07-23T04:03:24;16.70;99.90
592;DHT22;283;53.608;10.046;2022-07-23T04:05:52;16.70;99.90
592;DHT22;283;53.608;10.046;2022-07-23T04:08:20;16.70;99.90
592;DHT22;283;53.608;10.046;2022-07-23T04:10:48;16.70;99.90
592;DHT22;283;53.608;10.046;2022-07-23T04:13:16;16.80;99.90
592;DHT22;283;53.608;10.046;2022-07-23T04:15:44;16.80;99.90
592;DHT22;283;53.608;10.046;2022-07-23T04:18:14;16.90;99.90
592;DHT22;283;53.608;10.046;2022-07-23T04:20:43;17.00;99.90
592;DHT22;283;53.608;10.046;2022-07-23T04:23:11;17.10;99.90
592;DHT22;283;53.608;10.046;2022-07-23T04:25:39;17.20;99.90
592;DHT22;283;53.608;10.046;2022-07-23T04:28:07;17.30;99.90
592;DHT22;283;53.608;10.046;2022-07-23T04:30:35;17.40;99.90
592;DHT22;283;53.608;10.046;2022-07-23T04:33:03;17.50;99.90
592;DHT22;283;53.608;10.046;2022-07-23T04:35:35;17.50;99.90
592;DHT22;283;53.608;10.046;2022-07-23T04:38:03;17.60;99.90
592;DHT22;283;53.608;10.046;2022-07-23T04:40:32;17.60;99.90
592;DHT22;283;53.608;10.046;2022-07-23T04:43:00;17.50;99.90
592;DHT22;283;53.608;10.046;2022-07-23T04:45:27;17.50;99.90
592;DHT22;283;53.608;10.046;2022-07-23T04:47:55;17.50;99.90
592;DHT22;283;53.608;10.046;2022-07-23T04:50:24;17.40;99.90
592;DHT22;283;53.608;10.046;2022-07-23T04:52:53;17.30;99.90
592;DHT22;283;53.608;10.046;2022-07-23T04:55:21;17.20;99.90
592;DHT22;283;53.608;10.046;2022-07-23T04:57:49;17.20;99.90
592;DHT22;283;53.608;10.046;2022-07-23T05:00:16;17.20;99.90
592;DHT22;283;53.608;10.046;2022-07-23T05:02:44;17.20;99.90
592;DHT22;283;53.608;10.046;2022-07-23T05:05:12;17.10;99.90
592;DHT22;283;53.608;10.046;2022-07-23T05:07:40;17.10;99.90
592;DHT22;283;53.608;10.046;2022-07-23T05:10:09;17.10;99.90
592;DHT22;283;53.608;10.046;2022-07-23T05:12:37;17.10;99.90
592;DHT22;283;53.608;10.046;2022-07-23T05:15:06;17.10;99.90
592;DHT22;283;53.608;10.046;2022-07-23T05:17:39;17.10;99.90
592;DHT22;283;53.608;10.046;2022-07-23T05:20:08;17.20;99.90
592;DHT22;283;53.608;10.046;2022-07-23T05:22:36;17.20;99.90
592;DHT22;283;53.608;10.046;2022-07-23T05:25:06;17.30;99.90
592;DHT22;283;53.608;10.046;2022-07-23T05:27:36;17.30;99.90
592;DHT22;283;53.608;10.046;2022-07-23T05:30:04;17.30;99.90
592;DHT22;283;53.608;10.046;2022-07-23T05:32:32;17.20;99.90
592;DHT22;283;53.608;10.046;2022-07-23T05:35:00;17.30;99.90
592;DHT22;283;53.608;10.046;2022-07-23T05:37:33;17.30;99.90
592;DHT22;283;53.608;10.046;2022-07-23T05:40:05;17.40;99.90
592;DHT22;283;53.608;10.046;2022-07-23T05:42:35;17.40;99.90
592;DHT22;283;53.608;10.046;2022-07-23T05:45:04;17.50;99.90
592;DHT22;283;53.608;10.046;2022-07-23T05:47:39;17.50;99.90
592;DHT22;283;53.608;10.046;2022-07-23T05:50:08;17.60;99.90
592;DHT22;283;53.608;10.046;2022-07-23T05:52:36;17.80;99.90
592;DHT22;283;53.608;10.046;2022-07-23T05:55:06;17.80;99.90
592;DHT22;283;53.608;10.046;2022-07-23T05:57:35;17.80;99.90
592;DHT22;283;53.608;10.046;2022-07-23T06:00:05;17.90;99.90
592;DHT22;283;53.608;10.046;2022-07-23T06:02:34;18.00;99.90
592;DHT22;283;53.608;10.046;2022-07-23T06:05:04;18.10;99.90
592;DHT22;283;53.608;10.046;2022-07-23T06:07:35;18.10;99.90
592;DHT22;283;53.608;10.046;2022-07-23T06:10:19;18.20;99.90
592;DHT22;283;53.608;10.046;2022-07-23T06:12:49;18.20;99.90
592;DHT22;283;53.608;10.046;2022-07-23T06:15:16;18.20;99.90
592;DHT22;283;53.608;10.046;2022-07-23T06:17:44;18.20;99.90
592;DHT22;283;53.608;10.046;2022-07-23T06:20:13;18.10;99.90
592;DHT22;283;53.608;10.046;2022-07-23T06:22:51;18.10;99.90
592;DHT22;283;53.608;10.046;2022-07-23T06:25:40;18.10;99.90
592;DHT22;283;53.608;10.046;2022-07-23T06:28:19;18.20;99.90
592;DHT22;283;53.608;10.046;2022-07-23T06:30:47;18.20;99.90
592;DHT22;283;53.608;10.046;2022-07-23T06:33:16;18.30;99.90
592;DHT22;283;53.608;10.046;2022-07-23T06:35:50;18.50;99.90
592;DHT22;283;53.608;10.046;2022-07-23T06:38:24;18.60;99.90
592;DHT22;283;53.608;10.046;2022-07-23T06:41:02;18.70;99.90
592;DHT22;283;53.608;10.046;2022-07-23T06:43:43;18.90;99.90
592;DHT22;283;53.608;10.046;2022-07-23T06:46:18;19.00;99.90
592;DHT22;283;53.608;10.046;2022-07-23T06:48:50;19.10;99.90
592;DHT22;283;53.608;10.046;2022-07-23T06:51:28;19.30;99.90
592;DHT22;283;53.608;10.046;2022-07-23T06:54:12;19.30;99.90
592;DHT22;283;53.608;10.046;2022-07-23T06:56:46;19.30;99.90
592;DHT22;283;53.608;10.046;2022-07-23T06:59:22;19.20;99.90
592;DHT22;283;53.608;10.046;2022-07-23T07:01:51;19.30;99.90
592;DHT22;283;53.608;10.046;2022-07-23T07:04:21;19.30;99.90
592;DHT22;283;53.608;10.046;2022-07-23T07:06:59;19.30;99.90
592;DHT22;283;53.608;10.046;2022-07-23T07:09:32;19.30;99.90
592;DHT22;283;53.608;10.046;2022-07-23T07:12:05;19.40;99.90
592;DHT22;283;53.608;10.046;2022-07-23T07:14:36;19.50;99.90
592;DHT22;283;53.608;10.046;2022-07-23T07:17:21;19.70;99.90
592;DHT22;283;53.608;10.046;2022-07-23T07:19:55;19.80;99.90
592;DHT22;283;53.608;10.046;2022-07-23T07:22:23;19.70;99.90
592;DHT22;283;53.608;10.046;2022-07-23T07:24:51;19.60;99.90
592;DHT22;283;53.608;10.046;2022-07-23T07:27:19;19.40;99.90
592;DHT22;283;53.608;10.046;2022-07-23T07:29:51;19.20;99.90
592;DHT22;283;53.608;10.046;2022-07-23T07:32:20;19.00;99.90
592;DHT22;283;53.608;10.046;2022-07-23T07:35:09;18.80;99.90
592;DHT22;283;53.608;10.046;2022-07-23T07:37:37;18.80;99.90
592;DHT22;283;53.608;10.046;2022-07-23T07:40:06;18.80;99.90
592;DHT22;283;53.608;10.046;2022-07-23T07:42:34;18.90;99.90
592;DHT22;283;53.608;10.046;2022-07-23T07:45:04;18.90;99.90
592;DHT22;283;53.608;10.046;2022-07-23T07:47:32;19.00;99.90
592;DHT22;283;53.608;10.046;2022-07-23T07:50:00;19.00;99.90
592;DHT22;283;53.608;10.046;2022-07-23T07:52:29;19.00;99.90
592;DHT22;283;53.608;10.046;2022-07-23T07:54:57;18.80;99.90
592;DHT22;283;53.608;10.046;2022-07-23T07:57:25;18.80;99.90
592;DHT22;283;53.608;10.046;2022-07-23T07:59:58;18.80;99.90
592;DHT22;283;53.608;10.046;2022-07-23T08:02:48;18.90;99.90
592;DHT22;283;53.608;10.046;2022-07-23T08:05:19;18.90;99.90
592;DHT22;283;53.608;10.046;2022-07-23T08:07:53;19.00;99.90
592;DHT22;283;53.608;10.046;2022-07-23T08:10:22;19.20;99.90
592;DHT22;283;53.608;10.046;2022-07-23T08:12:51;19.40;99.90
592;DHT22;283;53.608;10.046;2022-07-23T08:15:23;19.60;99.90
592;DHT22;283;53.608;10.046;2022-07-23T08:17:53;19.80;99.90
592;DHT22;283;53.608;10.046;2022-07-23T08:20:22;19.80;99.90
592;DHT22;283;53.608;10.046;2022-07-23T08:22:54;19.70;99.90
592;DHT22;283;53.608;10.046;2022-07-23T08:25:25;19.60;99.90
592;DHT22;283;53.608;10.046;2022-07-23T08:27:53;19.40;99.90
592;DHT22;283;53.608;10.046;2022-07-23T08:30:21;19.30;99.90
592;DHT22;283;53.608;10.046;2022-07-23T08:32:52;19.10;99.90
592;DHT22;283;53.608;10.046;2022-07-23T08:35:26;19.20;99.90
592;DHT22;283;53.608;10.046;2022-07-23T08:37:55;19.30;99.90
592;DHT22;283;53.608;10.046;2022-07-23T08:40:24;19.50;99.90
592;DHT22;283;53.608;10.046;2022-07-23T08:42:53;19.60;99.90
592;DHT22;283;53.608;10.046;2022-07-23T08:45:23;19.70;99.90
592;DHT22;283;53.608;10.046;2022-07-23T08:47:54;19.80;99.90
592;DHT22;283;53.608;10.046;2022-07-23T08:50:24;20.00;99.90
592;DHT22;283;53.608;10.046;2022-07-23T08:52:53;20.20;99.90
592;DHT22;283;53.608;10.046;2022-07-23T08:55:21;20.20;99.90
592;DHT22;283;53.608;10.046;2022-07-23T08:57:51;20.30;99.90
592;DHT22;283;53.608;10.046;2022-07-23T09:00:21;20.40;99.90
592;DHT22;283;53.608;10.046;2022-07-23T09:02:50;20.40;99.90
592;DHT22;283;53.608;10.046;2022-07-23T09:05:20;20.60;99.90
592;DHT22;283;53.608;10.046;2022-07-23T09:08:09;20.70;99.90
592;DHT22;283;53.608;10.046;2022-07-23T09:10:44;20.70;99.90
592;DHT22;283;53.608;10.046;2022-07-23T09:13:30;20.60;99.90
592;DHT22;283;53.608;10.046;2022-07-23T09:16:01;20.50;99.90
592;DHT22;283;53.608;10.046;2022-07-23T09:18:35;20.50;99.90
592;DHT22;283;53.608;10.046;2022-07-23T09:21:12;20.80;99.90
592;DHT22;283;53.608;10.046;2022-07-23T09:23:42;20.90;99.90
592;DHT22;283;53.608;10.046;2022-07-23T09:26:18;21.10;99.90
592;DHT22;283;53.608;10.046;2022-07-23T09:28:54;21.30;99.90
592;DHT22;283;53.608;10.046;2022-07-23T09:31:22;21.40;99.90
592;DHT22;283;53.608;10.046;2022-07-23T09:33:51;21.50;99.90
592;DHT22;283;53.608;10.046;2022-07-23T09:36:29;21.70;99.90
592;DHT22;283;53.608;10.046;2022-07-23T09:38:57;21.80;99.90
592;DHT22;283;53.608;10.046;2022-07-23T09:41:25;21.90;99.90
592;DHT22;283;53.608;10.046;2022-07-23T09:44:07;21.80;99.90
592;DHT22;283;53.608;10.046;2022-07-23T09:46:35;21.80;99.90
592;DHT22;283;53.608;10.046;2022-07-23T09:49:14;21.70;99.90
592;DHT22;283;53.608;10.046;2022-07-23T09:51:49;21.60;99.90
592;DHT22;283;53.608;10.046;2022-07-23T09:54:27;21.50;99.90
592;DHT22;283;53.608;10.046;2022-07-23T09:56:57;21.50;99.90
592;DHT22;283;53.608;10.046;2022-07-23T09:59:29;21.40;99.90
592;DHT22;283;53.608;10.046;2022-07-23T10:01:58;21.40;99.90
592;DHT22;283;53.608;10.046;2022-07-23T10:04:28;21.40;99.90
592;DHT22;283;53.608;10.046;2022-07-23T10:06:59;21.50;99.90
592;DHT22;283;53.608;10.046;2022-07-23T10:09:28;21.30;99.90
592;DHT22;283;53.608;10.046;2022-07-23T10:11:58;21.10;99.90
592;DHT22;283;53.608;10.046;2022-07-23T10:14:32;21.00;99.90
592;DHT22;283;53.608;10.046;2022-07-23T10:17:01;20.60;99.90
592;DHT22;283;53.608;10.046;2022-07-23T10:19:30;20.50;99.90
592;DHT22;283;53.608;10.046;2022-07-23T10:22:01;20.40;99.90
592;DHT22;283;53.608;10.046;2022-07-23T10:24:42;20.40;99.90
592;DHT22;283;53.608;10.046;2022-07-23T10:27:33;20.30;99.90
592;DHT22;283;53.608;10.046;2022-07-23T10:30:04;20.20;99.90
592;DHT22;283;53.608;10.046;2022-07-23T10:32:40;20.40;99.90
592;DHT22;283;53.608;10.046;2022-07-23T10:35:19;20.50;99.90
592;DHT22;283;53.608;10.046;2022-07-23T10:37:53;20.90;99.90
592;DHT22;283;53.608;10.046;2022-07-23T10:40:23;21.00;99.90
592;DHT22;283;53.608;10.046;2022-07-23T10:42:51;21.20;99.90
592;DHT22;283;53.608;10.046;2022-07-23T10:45:30;21.20;99.90
592;DHT22;283;53.608;10.046;2022-07-23T10:48:16;21.00;99.90
592;DHT22;283;53.608;10.046;2022-07-23T10:51:08;20.90;99.90
592;DHT22;283;53.608;10.046;2022-07-23T10:53:58;20.90;99.90
592;DHT22;283;53.608;10.046;2022-07-23T10:56:49;20.90;99.90
592;DHT22;283;53.608;10.046;2022-07-23T10:59:17;20.80;99.90
592;DHT22;283;53.608;10.046;2022-07-23T11:01:46;20.80;99.90
592;DHT22;283;53.608;10.046;2022-07-23T11:04:15;20.90;99.90
592;DHT22;283;53.608;10.046;2022-07-23T11:07:08;21.00;99.90
592;DHT22;283;53.608;10.046;2022-07-23T11:09:41;21.00;99.90
592;DHT22;283;53.608;10.046;2022-07-23T11:12:31;21.00;99.90
592;DHT22;283;53.608;10.046;2022-07-23T11:15:00;21.00;99.90
592;DHT22;283;53.608;10.046;2022-07-23T11:17:29;20.90;99.90
592;DHT22;283;53.608;10.046;2022-07-23T11:20:17;20.70;99.90
592;DHT22;283;53.608;10.046;2022-07-23T11:22:51;20.60;99.90
592;DHT22;283;53.608;10.046;2022-07-23T11:25:35;20.70;99.90
592;DHT22;283;53.608;10.046;2022-07-23T11:28:09;20.70;99.90
592;DHT22;283;53.608;10.046;2022-07-23T11:30:40;20.80;99.90
592;DHT22;283;53.608;10.046;2022-07-23T11:33:19;20.90;99.90
592;DHT22;283;53.608;10.046;2022-07-23T11:35:51;21.00;99.90
592;DHT22;283;53.608;10.046;2022-07-23T11:38:28;21.10;99.90
592;DHT22;283;53.608;10.046;2022-07-23T11:40:59;21.20;99.90
592;DHT22;283;53.608;10.046;2022-07-23T11:43:27;21.30;99.90
592;DHT22;283;53.608;10.046;2022-07-23T11:45:59;21.40;99.90
592;DHT22;283;53.608;10.046;2022-07-23T11:48:28;21.50;99.90
592;DHT22;283;53.608;10.046;2022-07-23T11:50:57;21.60;99.90
592;DHT22;283;53.608;10.046;2022-07-23T11:53:26;21.70;99.90
592;DHT22;283;53.608;10.046;2022-07-23T11:56:04;21.80;99.90
592;DHT22;283;53.608;10.046;2022-07-23T11:58:32;21.90;99.90
592;DHT22;283;53.608;10.046;2022-07-23T12:01:00;21.90;99.90
592;DHT22;283;53.608;10.046;2022-07-23T12:03:29;21.90;99.90
592;DHT22;283;53.608;10.046;2022-07-23T12:05:59;21.90;99.90
592;DHT22;283;53.608;10.046;2022-07-23T12:08:27;22.00;99.90
592;DHT22;283;53.608;10.046;2022-07-23T12:10:56;22.00;99.90
592;DHT22;283;53.608;10.046;2022-07-23T12:13:25;22.00;99.90
592;DHT22;283;53.608;10.046;2022-07-23T12:15:56;21.90;99.90
592;DHT22;283;53.608;10.046;2022-07-23T12:18:26;21.90;99.90
592;DHT22;283;53.608;10.046;2022-07-23T12:20:56;21.70;99.90
592;DHT22;283;53.608;10.046;2022-07-23T12:23:26;21.70;99.90
592;DHT22;283;53.608;10.046;2022-07-23T12:25:54;21.80;99.90
592;DHT22;283;53.608;10.046;2022-07-23T12:28:29;22.00;99.90
592;DHT22;283;53.608;10.046;2022-07-23T12:30:58;22.20;99.90
592;DHT22;283;53.608;10.046;2022-07-23T12:33:27;22.20;99.90
592;DHT22;283;53.608;10.046;2022-07-23T12:35:58;22.20;99.90
592;DHT22;283;53.608;10.046;2022-07-23T12:38:28;22.20;99.90
592;DHT22;283;53.608;10.046;2022-07-23T12:41:03;22.20;99.90
592;DHT22;283;53.608;10.046;2022-07-23T12:43:36;22.20;99.90
592;DHT22;283;53.608;10.046;2022-07-23T12:46:06;22.20;99.90
592;DHT22;283;53.608;10.046;2022-07-23T12:48:36;22.20;99.90
592;DHT22;283;53.608;10.046;2022-07-23T12:51:05;22.30;99.90
592;DHT22;283;53.608;10.046;2022-07-23T12:53:38;22.40;99.90
592;DHT22;283;53.608;10.046;2022-07-23T12:56:08;22.40;99.90
592;DHT22;283;53.608;10.046;2022-07-23T12:58:44;22.30;99.90
592;DHT22;283;53.608;10.046;2022-07-23T13:01:25;22.30;99.90
592;DHT22;283;53.608;10.046;2022-07-23T13:04:01;22.20;99.90
592;DHT22;283;53.608;10.046;2022-07-23T13:06:41;22.00;99.90
592;DHT22;283;53.608;10.046;2022-07-23T13:09:11;22.10;99.90
592;DHT22;283;53.608;10.046;2022-07-23T13:11:41;22.10;99.90
592;DHT22;283;53.608;10.046;2022-07-23T13:14:11;22.10;99.90
592;DHT22;283;53.608;10.046;2022-07-23T13:16:41;22.10;99.90
592;DHT22;283;53.608;10.046;2022-07-23T13:19:09;22.10;99.90
592;DHT22;283;53.608;10.046;2022-07-23T13:21:39;22.20;99.90
592;DHT22;283;53.608;10.046;2022-07-23T13:24:08;22.10;99.90
592;DHT22;283;53.608;10.046;2022-07-23T13:26:37;22.20;99.90
592;DHT22;283;53.608;10.046;2022-07-23T13:29:05;22.20;99.90
592;DHT22;283;53.608;10.046;2022-07-23T13:31:38;22.00;99.90
592;DHT22;283;53.608;10.046;2022-07-23T13:34:06;22.00;99.90
592;DHT22;283;53.608;10.046;2022-07-23T13:36:34;21.90;99.90
592;DHT22;283;53.608;10.046;2022-07-23T13:39:03;21.90;99.90
592;DHT22;283;53.608;10.046;2022-07-23T13:41:35;21.90;99.90
592;DHT22;283;53.608;10.046;2022-07-23T13:44:03;21.80;99.90
592;DHT22;283;53.608;10.046;2022-07-23T13:46:32;21.80;99.90
592;DHT22;283;53.608;10.046;2022-07-23T13:49:02;21.90;99.90
592;DHT22;283;53.608;10.046;2022-07-23T13:51:32;21.80;99.90
592;DHT22;283;53.608;10.046;2022-07-23T13:54:00;21.70;99.90
592;DHT22;283;53.608;10.046;2022-07-23T13:56:29;21.50;99.90
592;DHT22;283;53.608;10.046;2022-07-23T13:58:57;21.50;99.90
592;DHT22;283;53.608;10.046;2022-07-23T14:01:25;21.70;99.90
592;DHT22;283;53.608;10.046;2022-07-23T14:04:06;21.80;99.90
592;DHT22;283;53.608;10.046;2022-07-23T14:06:34;22.00;99.90
592;DHT22;283;53.608;10.046;2022-07-23T14:09:02;22.00;99.90
592;DHT22;283;53.608;10.046;2022-07-23T14:11:34;22.00;99.90
592;DHT22;283;53.608;10.046;2022-07-23T14:14:02;22.00;99.90
592;DHT22;283;53.608;10.046;2022-07-23T14:16:30;22.10;99.90
592;DHT22;283;53.608;10.046;2022-07-23T14:18:58;22.10;99.90
592;DHT22;283;53.608;10.046;2022-07-23T14:21:28;22.00;99.90
592;DHT22;283;53.608;10.046;2022-07-23T14:23:56;22.10;99.90
592;DHT22;283;53.608;10.046;2022-07-23T14:26:24;22.10;99.90
592;DHT22;283;53.608;10.046;2022-07-23T14:28:52;22.10;99.90
592;DHT22;283;53.608;10.046;2022-07-23T14:31:20;22.20;99.90
592;DHT22;283;53.608;10.046;2022-07-23T14:33:49;22.30;99.90
592;DHT22;283;53.608;10.046;2022-07-23T14:36:20;22.30;99.90
592;DHT22;283;53.608;10.046;2022-07-23T14:38:49;22.20;99.90
592;DHT22;283;53.608;10.046;2022-07-23T14:41:18;22.10;99.90
592;DHT22;283;53.608;10.046;2022-07-23T14:43:52;22.10;99.90
592;DHT22;283;53.608;10.046;2022-07-23T14:46:20;22.10;99.90
592;DHT22;283;53.608;10.046;2022-07-23T14:48:49;22.00;99.90
592;DHT22;283;53.608;10.046;2022-07-23T14:51:17;22.00;99.90
592;DHT22;283;53.608;10.046;2022-07-23T14:53:45;21.90;99.90
592;DHT22;283;53.608;10.046;2022-07-23T14:56:15;21.90;99.90
592;DHT22;283;53.608;10.046;2022-07-23T14:58:43;21.80;99.90
592;DHT22;283;53.608;10.046;2022-07-23T15:01:11;21.80;99.90
592;DHT22;283;53.608;10.046;2022-07-23T15:03:39;21.70;99.90
592;DHT22;283;53.608;10.046;2022-07-23T15:06:27;21.60;99.90
592;DHT22;283;53.608;10.046;2022-07-23T15:08:55;21.60;99.90
592;DHT22;283;53.608;10.046;2022-07-23T15:11:24;21.60;99.90
592;DHT22;283;53.608;10.046;2022-07-23T15:13:52;21.60;99.90
592;DHT22;283;53.608;10.046;2022-07-23T15:16:20;21.50;99.90
592;DHT22;283;53.608;10.046;2022-07-23T15:18:50;21.50;99.90
592;DHT22;283;53.608;10.046;2022-07-23T15:21:18;21.40;99.90
592;DHT22;283;53.608;10.046;2022-07-23T15:23:46;21.30;99.90
592;DHT22;283;53.608;10.046;2022-07-23T15:26:15;21.30;99.90
592;DHT22;283;53.608;10.046;2022-07-23T15:28:46;21.20;99.90
592;DHT22;283;53.608;10.046;2022-07-23T15:31:14;21.20;99.90
592;DHT22;283;53.608;10.046;2022-07-23T15:33:42;21.20;99.90
592;DHT22;283;53.608;10.046;2022-07-23T15:36:10;21.20;99.90
592;DHT22;283;53.608;10.046;2022-07-23T15:38:38;21.30;99.90
592;DHT22;283;53.608;10.046;2022-07-23T15:41:06;21.30;99.90
592;DHT22;283;53.608;10.046;2022-07-23T15:43:34;21.50;99.90
592;DHT22;283;53.608;10.046;2022-07-23T15:46:04;21.50;99.90
592;DHT22;283;53.608;10.046;2022-07-23T15:48:35;21.60;99.90
592;DHT22;283;53.608;10.046;2022-07-23T15:51:05;21.60;99.90
592;DHT22;283;53.608;10.046;2022-07-23T15:53:33;21.70;99.90
592;DHT22;283;53.608;10.046;2022-07-23T15:56:04;21.60;99.90
592;DHT22;283;53.608;10.046;2022-07-23T15:58:42;21.40;99.90
592;DHT22;283;53.608;10.046;2022-07-23T16:01:12;21.30;99.90
592;DHT22;283;53.608;10.046;2022-07-23T16:03:41;21.30;99.90
592;DHT22;283;53.608;10.046;2022-07-23T16:06:10;21.40;99.90
592;DHT22;283;53.608;10.046;2022-07-23T16:08:43;21.40;99.90
592;DHT22;283;53.608;10.046;2022-07-23T16:11:12;21.40;99.90
592;DHT22;283;53.608;10.046;2022-07-23T16:13:40;21.40;99.90
592;DHT22;283;53.608;10.046;2022-07-23T16:16:08;21.30;99.90
592;DHT22;283;53.608;10.046;2022-07-23T16:18:37;21.30;99.90
592;DHT22;283;53.608;10.046;2022-07-23T16:21:05;21.30;99.90
592;DHT22;283;53.608;10.046;2022-07-23T16:23:41;21.30;99.90
592;DHT22;283;53.608;10.046;2022-07-23T16:26:09;21.30;99.90
592;DHT22;283;53.608;10.046;2022-07-23T16:28:38;21.30;99.90
592;DHT22;283;53.608;10.046;2022-07-23T16:31:07;21.20;99.90
592;DHT22;283;53.608;10.046;2022-07-23T16:33:37;21.10;99.90
592;DHT22;283;53.608;10.046;2022-07-23T16:36:06;21.10;99.90
592;DHT22;283;53.608;10.046;2022-07-23T16:38:35;20.90;99.90
592;DHT22;283;53.608;10.046;2022-07-23T16:43:32;20.80;99.90
592;DHT22;283;53.608;10.046;2022-07-23T16:46:00;20.80;99.90
592;DHT22;283;53.608;10.046;2022-07-23T16:48:28;20.70;99.90
592;DHT22;283;53.608;10.046;2022-07-23T16:50:58;20.60;99.90